Time;durP1;ratioP1;P1;durP2;ratioP2;P2;SDS_P1;SDS_P2;PMS_P1;PMS_P2;Temp;Humidity;BMP_temperature;BMP_pressure;BME280_temperature;BME280_humidity;BME280_pressure;Samples;Min_cycle;Max_cycle;Signal;HPM_P1;HPM_P2
2021/08/02 00:02:36;;;;;;;;;;;13.10;99.90;;;;;;5071270;28;19913;-81
2021/08/02 00:05:03;;;;;;;;;;;13.00;99.90;;;;;;5052484;28;19912;-82
2021/08/02 00:07:29;;;;;;;;;;;13.00;99.90;;;;;;5069174;28;19920;-77
2021/08/02 00:09:56;;;;;;;;;;;12.90;99.90;;;;;;5055237;28;19913;-81
2021/08/02 00:12:27;;;;;;;;;;;12.80;99.90;;;;;;5054651;28;20261;-82
2021/08/02 00:14:55;;;;;;;;;;;12.80;99.90;;;;;;5054183;28;20230;-80
2021/08/02 00:17:21;;;;;;;;;;;12.80;99.90;;;;;;5068978;28;19931;-81
2021/08/02 00:19:47;;;;;;;;;;;12.70;99.90;;;;;;5055499;28;19912;-82
2021/08/02 00:22:12;;;;;;;;;;;12.80;99.90;;;;;;5054673;28;19912;-82
2021/08/02 00:24:38;;;;;;;;;;;12.80;99.90;;;;;;5070723;28;19917;-81
2021/08/02 00:27:04;;;;;;;;;;;12.80;99.90;;;;;;5070529;28;20314;-80
2021/08/02 00:29:31;;;;;;;;;;;12.90;99.90;;;;;;5073559;28;19920;-81
2021/08/02 00:31:57;;;;;;;;;;;12.90;99.90;;;;;;5069350;28;20007;-81
2021/08/02 00:34:23;;;;;;;;;;;12.90;99.90;;;;;;5069660;28;20061;-81
2021/08/02 00:36:53;;;;;;;;;;;12.90;99.90;;;;;;5055476;28;20522;-80
2021/08/02 00:39:37;;;;;;;;;;;13.00;99.90;;;;;;5055715;28;19938;-81
2021/08/02 00:42:08;;;;;;;;;;;13.00;99.90;;;;;;5069894;28;19969;-78
2021/08/02 00:44:37;;;;;;;;;;;13.10;99.90;;;;;;5055322;28;20264;-82
2021/08/02 00:47:04;;;;;;;;;;;13.10;99.90;;;;;;5069649;28;19981;-82
2021/08/02 00:49:29;;;;;;;;;;;13.20;99.90;;;;;;5073489;28;19916;-81
2021/08/02 00:51:56;;;;;;;;;;;13.20;99.90;;;;;;5054142;28;19912;-83
2021/08/02 00:54:23;;;;;;;;;;;13.20;99.90;;;;;;5073278;28;19912;-82
2021/08/02 00:56:50;;;;;;;;;;;13.10;99.90;;;;;;5073449;28;19917;-81
2021/08/02 00:59:16;;;;;;;;;;;13.10;99.90;;;;;;5055744;28;20320;-78
2021/08/02 01:01:42;;;;;;;;;;;13.20;99.90;;;;;;5050202;28;19918;-77
2021/08/02 01:04:08;;;;;;;;;;;13.10;99.90;;;;;;5071859;28;20290;-80
2021/08/02 01:06:34;;;;;;;;;;;13.10;99.90;;;;;;5050719;28;19948;-80
2021/08/02 01:09:01;;;;;;;;;;;13.10;99.90;;;;;;5051682;28;20013;-81
2021/08/02 01:11:27;;;;;;;;;;;13.20;99.90;;;;;;5050674;28;19995;-79
2021/08/02 01:13:53;;;;;;;;;;;13.20;99.90;;;;;;5054198;28;19916;-81
2021/08/02 01:16:19;;;;;;;;;;;13.30;99.90;;;;;;5051740;28;20316;-81
2021/08/02 01:18:47;;;;;;;;;;;13.30;99.90;;;;;;5072812;28;20342;-80
2021/08/02 01:21:13;;;;;;;;;;;13.30;99.90;;;;;;5051457;28;19916;-81
2021/08/02 01:23:39;;;;;;;;;;;13.30;99.90;;;;;;5051759;28;19930;-80
2021/08/02 01:26:04;;;;;;;;;;;13.30;99.90;;;;;;5054613;28;20327;-80
2021/08/02 01:28:30;;;;;;;;;;;13.30;99.90;;;;;;5069262;28;19920;-78
2021/08/02 01:30:55;;;;;;;;;;;13.30;99.90;;;;;;5050696;28;19920;-80
2021/08/02 01:33:28;;;;;;;;;;;13.20;99.90;;;;;;5068350;28;19927;-81
2021/08/02 01:36:14;;;;;;;;;;;13.20;99.90;;;;;;5051716;28;20012;-81
2021/08/02 01:38:40;;;;;;;;;;;13.20;99.90;;;;;;5050510;28;20680;-78
2021/08/02 01:41:06;;;;;;;;;;;13.20;99.90;;;;;;5070976;28;19916;-81
2021/08/02 01:43:32;;;;;;;;;;;13.20;99.90;;;;;;5051406;28;19966;-80
2021/08/02 01:45:57;;;;;;;;;;;13.10;99.90;;;;;;5051711;28;20178;-80
2021/08/02 01:48:35;;;;;;;;;;;13.10;99.90;;;;;;5068405;28;20291;-81
2021/08/02 01:51:00;;;;;;;;;;;13.00;99.90;;;;;;5052984;28;20374;-77
2021/08/02 01:53:35;;;;;;;;;;;13.00;99.90;;;;;;5071332;28;20010;-81
2021/08/02 01:56:04;;;;;;;;;;;12.90;99.90;;;;;;5052645;28;19924;-80
2021/08/02 01:58:36;;;;;;;;;;;12.80;99.90;;;;;;5069640;28;22286;-81
2021/08/02 02:01:02;;;;;;;;;;;12.80;99.90;;;;;;5051840;28;19912;-79
2021/08/02 02:03:28;;;;;;;;;;;12.80;99.90;;;;;;5069981;28;20329;-80
2021/08/02 02:06:14;;;;;;;;;;;12.70;99.90;;;;;;5069214;28;19920;-77
2021/08/02 02:08:54;;;;;;;;;;;12.70;99.90;;;;;;5050892;28;19966;-81
2021/08/02 02:11:19;;;;;;;;;;;12.60;99.90;;;;;;5069398;28;20011;-80
2021/08/02 02:13:47;;;;;;;;;;;12.60;99.90;;;;;;5069038;28;19999;-79
2021/08/02 02:16:15;;;;;;;;;;;12.60;99.90;;;;;;5069843;28;19968;-80
2021/08/02 02:18:49;;;;;;;;;;;12.60;99.90;;;;;;5065215;28;19916;-77
2021/08/02 02:21:16;;;;;;;;;;;12.60;99.90;;;;;;5069807;28;20334;-80
2021/08/02 02:23:43;;;;;;;;;;;12.60;99.90;;;;;;5054554;28;19912;-80
2021/08/02 02:26:09;;;;;;;;;;;12.60;99.90;;;;;;5051893;28;19939;-78
2021/08/02 02:28:34;;;;;;;;;;;12.60;99.90;;;;;;5052867;28;20256;-80
2021/08/02 02:31:01;;;;;;;;;;;12.50;99.90;;;;;;5053476;28;20015;-80
2021/08/02 02:33:28;;;;;;;;;;;12.50;99.90;;;;;;5066999;28;19928;-78
2021/08/02 02:35:54;;;;;;;;;;;12.50;99.90;;;;;;5070582;28;20279;-81
2021/08/02 02:38:20;;;;;;;;;;;12.50;99.90;;;;;;5053897;28;19940;-77
2021/08/02 02:40:46;;;;;;;;;;;12.50;99.90;;;;;;5051511;28;20325;-80
2021/08/02 02:43:12;;;;;;;;;;;12.50;99.90;;;;;;5069677;28;20003;-81
2021/08/02 02:45:39;;;;;;;;;;;12.50;99.90;;;;;;5053151;28;19920;-78
2021/08/02 02:48:05;;;;;;;;;;;12.50;99.90;;;;;;5052735;28;19919;-80
2021/08/02 02:50:32;;;;;;;;;;;12.50;99.90;;;;;;5071193;28;19927;-80
2021/08/02 02:52:58;;;;;;;;;;;12.40;99.90;;;;;;5051093;28;19913;-80
2021/08/02 02:55:25;;;;;;;;;;;12.40;99.90;;;;;;5070992;28;19944;-79
2021/08/02 02:57:50;;;;;;;;;;;12.40;99.90;;;;;;5070240;28;19912;-80
2021/08/02 03:00:16;;;;;;;;;;;12.40;99.90;;;;;;5048553;28;20296;-80
2021/08/02 03:02:42;;;;;;;;;;;12.40;99.90;;;;;;5065825;28;19917;-80
2021/08/02 03:05:09;;;;;;;;;;;12.40;99.90;;;;;;5065529;28;20401;-81
2021/08/02 03:07:36;;;;;;;;;;;12.40;99.90;;;;;;5048274;28;20239;-80
2021/08/02 03:10:03;;;;;;;;;;;12.30;99.90;;;;;;5066482;28;19912;-80
2021/08/02 03:12:30;;;;;;;;;;;12.30;99.90;;;;;;5067995;28;20381;-79
2021/08/02 03:14:56;;;;;;;;;;;12.30;99.90;;;;;;5049837;28;19947;-80
2021/08/02 03:17:24;;;;;;;;;;;12.30;99.90;;;;;;5069184;28;20301;-80
2021/08/02 03:19:50;;;;;;;;;;;12.30;99.90;;;;;;5049785;28;19921;-81
2021/08/02 03:22:27;;;;;;;;;;;12.30;99.90;;;;;;5049692;28;20426;-80
2021/08/02 03:25:13;;;;;;;;;;;12.30;99.90;;;;;;5048702;28;20215;-79
2021/08/02 03:27:49;;;;;;;;;;;12.30;99.90;;;;;;5046488;28;20349;-80
2021/08/02 03:30:15;;;;;;;;;;;12.30;99.90;;;;;;5048317;28;19936;-80
2021/08/02 03:32:42;;;;;;;;;;;12.30;99.90;;;;;;5050285;28;21083;-79
2021/08/02 03:35:08;;;;;;;;;;;12.30;99.90;;;;;;5056581;28;19913;-80
2021/08/02 03:37:36;;;;;;;;;;;12.30;99.90;;;;;;5049221;28;19962;-79
2021/08/02 03:40:02;;;;;;;;;;;12.30;99.90;;;;;;5064332;28;19963;-78
2021/08/02 03:42:29;;;;;;;;;;;12.30;99.90;;;;;;5061201;28;19916;-80
2021/08/02 03:44:55;;;;;;;;;;;12.20;99.90;;;;;;5051532;28;19913;-80
2021/08/02 03:47:20;;;;;;;;;;;12.20;99.90;;;;;;5049669;28;19919;-81
2021/08/02 03:49:46;;;;;;;;;;;12.20;99.90;;;;;;5069403;28;19912;-79
2021/08/02 03:52:12;;;;;;;;;;;12.20;99.90;;;;;;5068558;28;19955;-80
2021/08/02 03:54:37;;;;;;;;;;;12.10;99.90;;;;;;5048192;28;20377;-80
2021/08/02 03:57:03;;;;;;;;;;;12.10;99.90;;;;;;5047977;28;20334;-79
2021/08/02 03:59:29;;;;;;;;;;;12.10;99.90;;;;;;5061108;28;20011;-78
2021/08/02 04:01:55;;;;;;;;;;;12.10;99.90;;;;;;5042761;28;19928;-80
2021/08/02 04:04:20;;;;;;;;;;;12.10;99.90;;;;;;5050864;28;20386;-81
2021/08/02 04:06:46;;;;;;;;;;;12.10;99.90;;;;;;5064018;28;19974;-80
2021/08/02 04:09:12;;;;;;;;;;;12.10;99.90;;;;;;5052077;28;19913;-81
2021/08/02 04:11:39;;;;;;;;;;;12.10;99.90;;;;;;5062891;28;19935;-80
2021/08/02 04:14:04;;;;;;;;;;;12.10;99.90;;;;;;5049877;28;19973;-81
2021/08/02 04:16:30;;;;;;;;;;;12.10;99.90;;;;;;5052816;28;19928;-81
2021/08/02 04:18:56;;;;;;;;;;;12.10;99.90;;;;;;5069570;28;19919;-78
2021/08/02 04:21:22;;;;;;;;;;;12.10;99.90;;;;;;5051391;28;19912;-80
2021/08/02 04:23:48;;;;;;;;;;;12.10;99.90;;;;;;5050357;28;19917;-80
2021/08/02 04:26:13;;;;;;;;;;;12.10;99.90;;;;;;5048209;28;19916;-81
2021/08/02 04:28:43;;;;;;;;;;;12.10;99.90;;;;;;5069324;28;20338;-80
2021/08/02 04:31:09;;;;;;;;;;;12.10;99.90;;;;;;5067729;28;19913;-80
2021/08/02 04:33:35;;;;;;;;;;;12.10;99.90;;;;;;5066167;28;19916;-80
2021/08/02 04:36:01;;;;;;;;;;;12.10;99.90;;;;;;5052793;28;19917;-78
2021/08/02 04:38:26;;;;;;;;;;;12.10;99.90;;;;;;5067341;28;19939;-80
2021/08/02 04:40:52;;;;;;;;;;;12.10;99.90;;;;;;5049872;28;19967;-79
2021/08/02 04:43:17;;;;;;;;;;;12.10;99.90;;;;;;5049856;28;20129;-80
2021/08/02 04:45:43;;;;;;;;;;;12.10;99.90;;;;;;5053430;28;19917;-78
2021/08/02 04:48:08;;;;;;;;;;;12.20;99.90;;;;;;5050199;28;20318;-81
2021/08/02 04:50:34;;;;;;;;;;;12.20;99.90;;;;;;5067323;28;20379;-80
2021/08/02 04:53:00;;;;;;;;;;;12.20;99.90;;;;;;5050764;28;20334;-81
2021/08/02 04:55:25;;;;;;;;;;;12.30;99.90;;;;;;5052149;28;20316;-78
2021/08/02 04:57:51;;;;;;;;;;;12.30;99.90;;;;;;5067461;28;20316;-80
2021/08/02 05:00:16;;;;;;;;;;;12.30;99.90;;;;;;5048096;28;19935;-80
2021/08/02 05:02:42;;;;;;;;;;;12.40;99.90;;;;;;5066917;28;20019;-78
2021/08/02 05:05:08;;;;;;;;;;;12.50;99.90;;;;;;5048189;28;19920;-78
2021/08/02 05:07:33;;;;;;;;;;;12.60;99.90;;;;;;5066718;28;19925;-80
2021/08/02 05:09:59;;;;;;;;;;;12.70;99.90;;;;;;5054484;28;19962;-81
2021/08/02 05:12:24;;;;;;;;;;;12.80;99.90;;;;;;5050222;28;19927;-80
2021/08/02 05:14:50;;;;;;;;;;;12.90;99.90;;;;;;5067931;28;19921;-78
2021/08/02 05:17:16;;;;;;;;;;;12.90;99.90;;;;;;5069397;28;19924;-79
2021/08/02 05:19:41;;;;;;;;;;;12.90;99.90;;;;;;5050330;28;19913;-80
2021/08/02 05:22:07;;;;;;;;;;;13.00;99.90;;;;;;5050535;28;19913;-81
2021/08/02 05:24:32;;;;;;;;;;;13.00;99.90;;;;;;5049445;28;19931;-78
2021/08/02 05:26:59;;;;;;;;;;;13.00;99.90;;;;;;5049106;28;19925;-82
2021/08/02 05:29:24;;;;;;;;;;;13.10;99.90;;;;;;5051581;28;19912;-81
2021/08/02 05:31:50;;;;;;;;;;;13.10;99.90;;;;;;5048195;28;19924;-80
2021/08/02 05:34:16;;;;;;;;;;;13.10;99.90;;;;;;5067821;28;19920;-78
2021/08/02 05:36:41;;;;;;;;;;;13.10;99.90;;;;;;5048725;28;19921;-81
2021/08/02 05:39:07;;;;;;;;;;;13.10;99.90;;;;;;5047028;28;19943;-81
2021/08/02 05:41:33;;;;;;;;;;;13.20;99.90;;;;;;5047685;28;19921;-78
2021/08/02 05:43:58;;;;;;;;;;;13.20;99.90;;;;;;5045274;28;19921;-78
2021/08/02 05:46:25;;;;;;;;;;;13.20;99.90;;;;;;5046312;28;20266;-80
2021/08/02 05:48:51;;;;;;;;;;;13.30;99.90;;;;;;5047044;28;19916;-81
2021/08/02 05:51:16;;;;;;;;;;;13.30;99.90;;;;;;5046731;28;19920;-80
2021/08/02 05:53:42;;;;;;;;;;;13.40;99.90;;;;;;5047208;28;20304;-78
2021/08/02 05:56:08;;;;;;;;;;;13.40;99.90;;;;;;5049684;28;19962;-81
2021/08/02 05:58:34;;;;;;;;;;;13.50;99.90;;;;;;5045530;28;19913;-81
2021/08/02 06:01:00;;;;;;;;;;;13.60;99.90;;;;;;5046937;28;19983;-81
2021/08/02 06:03:25;;;;;;;;;;;13.60;99.90;;;;;;5043312;28;19917;-78
2021/08/02 06:05:51;;;;;;;;;;;13.70;99.90;;;;;;5047362;28;19978;-80
2021/08/02 06:08:16;;;;;;;;;;;13.70;99.90;;;;;;5047821;28;19917;-81
2021/08/02 06:10:42;;;;;;;;;;;13.80;99.90;;;;;;5046206;28;20027;-80
2021/08/02 06:13:07;;;;;;;;;;;13.80;99.90;;;;;;5047537;28;19921;-77
2021/08/02 06:15:33;;;;;;;;;;;13.90;99.90;;;;;;5045709;28;20328;-82
2021/08/02 06:17:58;;;;;;;;;;;13.90;99.90;;;;;;5043365;28;19913;-81
2021/08/02 06:20:24;;;;;;;;;;;14.00;99.90;;;;;;5049595;28;20359;-81
2021/08/02 06:22:50;;;;;;;;;;;14.00;99.90;;;;;;5047635;28;19912;-78
2021/08/02 06:25:15;;;;;;;;;;;14.10;99.90;;;;;;5043955;28;20299;-80
2021/08/02 06:27:41;;;;;;;;;;;14.10;99.90;;;;;;5045796;28;20077;-81
2021/08/02 06:30:07;;;;;;;;;;;14.20;99.90;;;;;;5046391;28;19920;-81
2021/08/02 06:32:33;;;;;;;;;;;14.20;99.90;;;;;;5045043;28;19917;-78
2021/08/02 06:35:00;;;;;;;;;;;14.30;99.90;;;;;;5046374;28;20316;-81
2021/08/02 06:37:27;;;;;;;;;;;14.40;99.90;;;;;;5043470;28;19998;-80
2021/08/02 06:39:52;;;;;;;;;;;14.50;99.90;;;;;;5050287;28;20118;-79
2021/08/02 06:42:22;;;;;;;;;;;14.60;99.90;;;;;;5069347;28;20030;-79
2021/08/02 06:44:48;;;;;;;;;;;14.60;99.90;;;;;;5047104;28;19920;-79
2021/08/02 06:47:13;;;;;;;;;;;14.70;99.90;;;;;;5069942;28;19942;-79
2021/08/02 06:49:39;;;;;;;;;;;14.70;99.90;;;;;;5054595;28;19912;-82
2021/08/02 06:52:04;;;;;;;;;;;14.80;99.90;;;;;;5074332;28;19921;-80
2021/08/02 06:54:30;;;;;;;;;;;14.70;99.90;;;;;;5051831;28;20010;-80
2021/08/02 06:56:56;;;;;;;;;;;14.70;99.90;;;;;;5055911;28;19923;-79
2021/08/02 06:59:21;;;;;;;;;;;14.80;99.90;;;;;;5049767;28;19921;-80
2021/08/02 07:01:47;;;;;;;;;;;14.70;99.90;;;;;;5046849;28;19917;-80
2021/08/02 07:04:12;;;;;;;;;;;14.80;99.90;;;;;;5044982;28;20197;-79
2021/08/02 07:06:41;;;;;;;;;;;14.90;99.90;;;;;;5064766;28;20059;-79
2021/08/02 07:09:11;;;;;;;;;;;14.90;99.90;;;;;;5065800;28;20227;-80
2021/08/02 07:11:36;;;;;;;;;;;14.90;99.90;;;;;;5052495;28;19919;-78
2021/08/02 07:14:02;;;;;;;;;;;15.00;99.90;;;;;;5062860;28;19920;-79
2021/08/02 07:16:28;;;;;;;;;;;15.10;99.90;;;;;;5064271;28;19983;-78
2021/08/02 07:18:53;;;;;;;;;;;15.20;99.90;;;;;;5060731;28;19921;-78
2021/08/02 07:21:19;;;;;;;;;;;15.30;99.90;;;;;;5057618;28;19944;-80
2021/08/02 07:23:45;;;;;;;;;;;15.40;99.90;;;;;;5067134;28;19912;-80
2021/08/02 07:26:11;;;;;;;;;;;15.40;99.90;;;;;;5049294;28;20271;-79
2021/08/02 07:28:37;;;;;;;;;;;15.60;99.90;;;;;;5051780;28;19913;-80
2021/08/02 07:31:02;;;;;;;;;;;15.70;99.90;;;;;;5036012;28;19920;-80
2021/08/02 07:33:28;;;;;;;;;;;15.90;99.90;;;;;;5062793;28;19917;-81
2021/08/02 07:35:54;;;;;;;;;;;16.10;99.90;;;;;;5063737;28;19924;-80
2021/08/02 07:38:19;;;;;;;;;;;16.20;99.90;;;;;;5069144;28;19924;-80
2021/08/02 07:40:45;;;;;;;;;;;16.30;99.90;;;;;;5052618;28;20292;-81
2021/08/02 07:43:10;;;;;;;;;;;16.20;99.90;;;;;;5064746;28;20331;-79
2021/08/02 07:45:36;;;;;;;;;;;16.10;99.90;;;;;;5048998;28;19927;-79
2021/08/02 07:48:02;;;;;;;;;;;16.00;99.90;;;;;;5043707;28;19913;-79
2021/08/02 07:50:28;;;;;;;;;;;15.90;99.90;;;;;;5063305;28;20056;-80
2021/08/02 07:52:53;;;;;;;;;;;15.90;99.90;;;;;;5056036;28;20315;-81
2021/08/02 07:55:19;;;;;;;;;;;15.90;99.90;;;;;;5058759;28;19916;-80
2021/08/02 07:57:44;;;;;;;;;;;15.90;99.90;;;;;;5072290;28;19939;-80
2021/08/02 08:00:11;;;;;;;;;;;16.00;99.90;;;;;;5076766;28;19923;-81
2021/08/02 08:02:37;;;;;;;;;;;16.00;99.90;;;;;;5056473;28;20265;-81
2021/08/02 08:05:04;;;;;;;;;;;16.00;99.90;;;;;;5051059;28;19921;-80
2021/08/02 08:07:39;;;;;;;;;;;16.00;99.90;;;;;;5050415;28;19913;-79
2021/08/02 08:10:05;;;;;;;;;;;16.10;99.90;;;;;;5049277;28;20431;-80
2021/08/02 08:12:30;;;;;;;;;;;16.30;99.90;;;;;;5052547;28;20342;-80
2021/08/02 08:14:56;;;;;;;;;;;16.40;99.90;;;;;;5054130;28;19912;-80
2021/08/02 08:17:22;;;;;;;;;;;16.70;99.90;;;;;;5067019;28;20011;-80
2021/08/02 08:19:48;;;;;;;;;;;16.80;99.90;;;;;;5070655;28;19958;-81
2021/08/02 08:22:13;;;;;;;;;;;16.80;99.90;;;;;;5051656;28;19917;-79
2021/08/02 08:24:39;;;;;;;;;;;16.80;99.90;;;;;;5068216;28;19965;-80
2021/08/02 08:27:04;;;;;;;;;;;17.00;99.90;;;;;;5051978;28;19919;-80
2021/08/02 08:29:30;;;;;;;;;;;17.00;99.90;;;;;;5051037;28;19931;-79
2021/08/02 08:31:55;;;;;;;;;;;16.90;99.90;;;;;;5049154;28;19924;-80
2021/08/02 08:34:21;;;;;;;;;;;16.90;99.90;;;;;;5049670;28;19917;-80
2021/08/02 08:36:47;;;;;;;;;;;17.00;99.90;;;;;;5050886;28;20345;-81
2021/08/02 08:39:12;;;;;;;;;;;17.10;99.90;;;;;;5066811;28;19928;-81
2021/08/02 08:41:38;;;;;;;;;;;17.20;99.90;;;;;;5066573;28;19969;-81
2021/08/02 08:44:03;;;;;;;;;;;17.10;99.90;;;;;;5064876;28;19912;-81
2021/08/02 08:46:29;;;;;;;;;;;17.20;99.90;;;;;;5067713;28;20003;-79
2021/08/02 08:48:55;;;;;;;;;;;17.10;99.90;;;;;;5052473;28;19999;-82
2021/08/02 08:51:21;;;;;;;;;;;17.10;99.90;;;;;;5075212;28;20126;-83
2021/08/02 08:53:46;;;;;;;;;;;17.00;99.90;;;;;;5058495;28;21500;-80
2021/08/02 08:56:15;;;;;;;;;;;16.90;99.90;;;;;;5073109;28;19916;-83
2021/08/02 08:58:42;;;;;;;;;;;16.80;99.90;;;;;;5053365;28;19913;-82
2021/08/02 09:01:07;;;;;;;;;;;16.80;99.90;;;;;;5055410;28;20322;-81
2021/08/02 09:03:33;;;;;;;;;;;16.60;99.90;;;;;;5073724;28;19912;-81
2021/08/02 09:06:06;;;;;;;;;;;16.60;99.90;;;;;;5056152;28;20369;-83
2021/08/02 09:08:41;;;;;;;;;;;16.70;99.90;;;;;;5070709;28;19920;-80
2021/08/02 09:11:07;;;;;;;;;;;16.60;99.90;;;;;;5056360;28;20389;-80
2021/08/02 09:13:34;;;;;;;;;;;16.60;99.90;;;;;;5074844;28;19916;-80
2021/08/02 09:16:17;;;;;;;;;;;16.80;99.90;;;;;;5052670;28;19923;-82
2021/08/02 09:18:56;;;;;;;;;;;16.90;99.90;;;;;;5053161;28;19916;-79
2021/08/02 09:21:21;;;;;;;;;;;17.00;99.90;;;;;;5069958;28;19916;-82
2021/08/02 09:23:48;;;;;;;;;;;17.00;99.90;;;;;;5068650;28;19927;-80
2021/08/02 09:26:13;;;;;;;;;;;17.20;99.90;;;;;;5052413;28;19920;-81
2021/08/02 09:28:49;;;;;;;;;;;17.40;99.90;;;;;;5052621;28;19912;-81
2021/08/02 09:31:16;;;;;;;;;;;17.40;99.90;;;;;;5049223;28;20218;-80
2021/08/02 09:33:46;;;;;;;;;;;17.50;99.90;;;;;;5051292;28;19948;-81
2021/08/02 09:36:12;;;;;;;;;;;17.40;99.90;;;;;;5067968;28;19932;-86
2021/08/02 09:38:38;;;;;;;;;;;17.40;99.90;;;;;;5050330;28;20267;-82
2021/08/02 09:41:03;;;;;;;;;;;17.20;99.90;;;;;;5065441;28;20014;-81
2021/08/02 09:43:29;;;;;;;;;;;17.00;99.90;;;;;;5050001;28;19966;-82
2021/08/02 09:45:56;;;;;;;;;;;16.90;99.90;;;;;;5049052;28;19963;-83
2021/08/02 09:48:32;;;;;;;;;;;16.90;99.90;;;;;;5049461;28;19916;-80
2021/08/02 09:51:04;;;;;;;;;;;17.00;99.90;;;;;;5058875;28;19980;-80
2021/08/02 09:53:35;;;;;;;;;;;16.90;99.90;;;;;;5044213;28;19995;-81
2021/08/02 09:56:00;;;;;;;;;;;16.90;99.90;;;;;;5066037;28;19916;-85
2021/08/02 09:58:26;;;;;;;;;;;16.90;99.90;;;;;;5065500;28;19923;-81
2021/08/02 10:00:51;;;;;;;;;;;16.90;99.90;;;;;;5049362;28;20273;-80
2021/08/02 10:03:17;;;;;;;;;;;17.00;99.90;;;;;;5050053;28;19916;-80
2021/08/02 10:05:43;;;;;;;;;;;17.10;99.90;;;;;;5067186;28;19932;-80
2021/08/02 10:08:08;;;;;;;;;;;17.30;99.90;;;;;;5050808;28;19917;-79
2021/08/02 10:10:37;;;;;;;;;;;17.50;99.90;;;;;;5064287;28;19995;-80
2021/08/02 10:13:03;;;;;;;;;;;18.00;99.90;;;;;;5049972;28;19931;-80
2021/08/02 10:15:29;;;;;;;;;;;18.40;99.90;;;;;;5065145;28;19916;-79
2021/08/02 10:17:56;;;;;;;;;;;18.70;99.90;;;;;;5066111;28;20304;-79
2021/08/02 10:20:26;;;;;;;;;;;18.80;99.90;;;;;;5066826;28;19920;-80
2021/08/02 10:22:52;;;;;;;;;;;18.90;99.90;;;;;;5047443;28;19928;-81
2021/08/02 10:25:29;;;;;;;;;;;19.20;99.90;;;;;;5063826;28;19916;-79
2021/08/02 10:28:04;;;;;;;;;;;19.40;99.90;;;;;;5064412;28;19920;-79
2021/08/02 10:30:29;;;;;;;;;;;19.20;99.90;;;;;;5067504;28;20315;-79
2021/08/02 10:32:56;;;;;;;;;;;19.10;99.90;;;;;;5065672;28;19912;-79
2021/08/02 10:35:35;;;;;;;;;;;19.00;99.90;;;;;;5046949;28;19923;-79
2021/08/02 10:38:08;;;;;;;;;;;19.00;99.90;;;;;;5047781;28;20239;-79
2021/08/02 10:40:47;;;;;;;;;;;19.00;99.90;;;;;;5066427;28;19917;-79
2021/08/02 10:43:13;;;;;;;;;;;18.80;99.90;;;;;;5045695;28;19924;-78
2021/08/02 10:45:40;;;;;;;;;;;18.70;99.90;;;;;;5046866;28;19917;-79
2021/08/02 10:48:06;;;;;;;;;;;18.80;99.90;;;;;;5046098;28;19917;-79
2021/08/02 10:50:42;;;;;;;;;;;18.90;99.90;;;;;;5044004;28;19927;-79
2021/08/02 10:53:12;;;;;;;;;;;18.80;99.90;;;;;;5045283;28;20213;-81
2021/08/02 10:55:42;;;;;;;;;;;18.60;99.90;;;;;;5049354;28;19956;-79
2021/08/02 10:58:08;;;;;;;;;;;18.30;99.90;;;;;;5062002;28;19951;-87
2021/08/02 11:00:33;;;;;;;;;;;18.20;99.90;;;;;;5069779;28;20058;-82
2021/08/02 11:02:59;;;;;;;;;;;17.90;99.90;;;;;;5065674;28;20227;-82
2021/08/02 11:05:29;;;;;;;;;;;17.60;99.90;;;;;;5054502;28;19912;-85
2021/08/02 11:08:00;;;;;;;;;;;17.50;99.90;;;;;;5069873;28;20269;-80
2021/08/02 11:10:26;;;;;;;;;;;17.30;99.90;;;;;;5053889;28;20223;-84
2021/08/02 11:12:51;;;;;;;;;;;17.30;99.90;;;;;;5056177;28;19916;-82
2021/08/02 11:15:17;;;;;;;;;;;17.30;99.90;;;;;;5070719;28;20398;-88
2021/08/02 11:17:50;;;;;;;;;;;17.30;99.90;;;;;;5063685;28;20327;-80
2021/08/02 11:20:16;;;;;;;;;;;17.40;99.90;;;;;;5051403;28;20027;-83
2021/08/02 11:22:52;;;;;;;;;;;17.50;99.90;;;;;;5053175;28;20020;-86
2021/08/02 11:25:21;;;;;;;;;;;17.50;99.90;;;;;;5051486;28;19913;-81
2021/08/02 11:27:54;;;;;;;;;;;17.60;99.90;;;;;;5048758;28;19913;-83
2021/08/02 11:30:20;;;;;;;;;;;17.60;99.90;;;;;;5069095;28;19921;-85
2021/08/02 11:32:46;;;;;;;;;;;17.60;99.90;;;;;;5051363;28;19917;-82
2021/08/02 11:35:12;;;;;;;;;;;17.60;99.90;;;;;;5051665;28;20061;-82
2021/08/02 11:37:38;;;;;;;;;;;17.80;99.90;;;;;;5052958;28;20003;-80
2021/08/02 11:40:12;;;;;;;;;;;17.80;99.90;;;;;;5056132;28;19917;-81
2021/08/02 11:42:39;;;;;;;;;;;17.80;99.90;;;;;;5067666;28;20299;-83
2021/08/02 11:45:05;;;;;;;;;;;17.80;99.90;;;;;;5067584;28;19909;-81
2021/08/02 11:47:35;;;;;;;;;;;17.80;99.90;;;;;;5051515;28;19928;-80
2021/08/02 11:50:02;;;;;;;;;;;17.80;99.90;;;;;;5051671;28;19917;-80
2021/08/02 11:52:28;;;;;;;;;;;18.00;99.90;;;;;;5055018;28;19920;-78
2021/08/02 11:55:04;;;;;;;;;;;18.10;99.90;;;;;;5069427;28;19924;-82
2021/08/02 11:57:30;;;;;;;;;;;18.10;99.90;;;;;;5047662;28;19940;-86
2021/08/02 12:00:00;;;;;;;;;;;18.00;99.90;;;;;;5054709;28;20295;-84
2021/08/02 12:02:31;;;;;;;;;;;18.00;99.90;;;;;;5073545;28;20188;-85
2021/08/02 12:04:58;;;;;;;;;;;17.80;99.90;;;;;;5054879;28;19916;-80
2021/08/02 12:07:24;;;;;;;;;;;17.70;99.90;;;;;;5054826;28;20326;-81
2021/08/02 12:09:50;;;;;;;;;;;17.70;99.90;;;;;;5055733;28;19974;-82
2021/08/02 12:12:22;;;;;;;;;;;17.70;99.90;;;;;;5065550;28;19954;-81
2021/08/02 12:14:48;;;;;;;;;;;17.70;99.90;;;;;;5051876;28;19916;-79
2021/08/02 12:17:13;;;;;;;;;;;17.70;99.90;;;;;;5069794;28;19935;-81
2021/08/02 12:19:42;;;;;;;;;;;17.70;99.90;;;;;;5054343;28;20005;-80
2021/08/02 12:22:08;;;;;;;;;;;17.70;99.90;;;;;;5062347;28;19931;-83
2021/08/02 12:24:33;;;;;;;;;;;17.80;99.90;;;;;;5064360;28;20073;-82
2021/08/02 12:26:59;;;;;;;;;;;17.80;99.90;;;;;;5072114;28;19919;-79
2021/08/02 12:29:27;;;;;;;;;;;17.80;99.90;;;;;;5063075;28;20333;-80
2021/08/02 12:31:57;;;;;;;;;;;17.80;99.90;;;;;;5050355;28;20322;-81
2021/08/02 12:34:23;;;;;;;;;;;17.70;99.90;;;;;;5044066;28;19912;-80
2021/08/02 12:36:51;;;;;;;;;;;17.70;99.90;;;;;;5050756;28;20303;-81
2021/08/02 12:39:17;;;;;;;;;;;17.60;99.90;;;;;;5052681;28;19974;-85
2021/08/02 12:41:42;;;;;;;;;;;17.40;99.90;;;;;;5069276;28;20289;-80
2021/08/02 12:44:08;;;;;;;;;;;17.50;99.90;;;;;;5056722;28;19912;-80
2021/08/02 12:46:34;;;;;;;;;;;17.50;99.90;;;;;;5072550;28;20211;-81
2021/08/02 12:48:59;;;;;;;;;;;17.40;99.90;;;;;;5074014;28;19912;-84
2021/08/02 12:51:26;;;;;;;;;;;17.50;99.90;;;;;;5070852;28;19917;-82
2021/08/02 12:53:52;;;;;;;;;;;17.50;99.90;;;;;;5076414;28;19924;-83
2021/08/02 12:56:17;;;;;;;;;;;17.60;99.90;;;;;;5075669;28;19939;-85
2021/08/02 12:58:43;;;;;;;;;;;17.70;99.90;;;;;;5074021;28;19986;-82
2021/08/02 13:01:09;;;;;;;;;;;17.80;99.90;;;;;;5070585;28;20349;-80
2021/08/02 13:03:43;;;;;;;;;;;17.80;99.90;;;;;;5075558;28;19916;-81
2021/08/02 13:06:12;;;;;;;;;;;17.90;99.90;;;;;;5054904;28;19916;-80
2021/08/02 13:08:37;;;;;;;;;;;18.10;99.90;;;;;;5056957;28;20215;-85
2021/08/02 13:11:09;;;;;;;;;;;18.10;99.90;;;;;;5067078;28;19913;-81
2021/08/02 13:13:35;;;;;;;;;;;18.10;99.90;;;;;;5055703;28;19913;-83
2021/08/02 13:16:01;;;;;;;;;;;18.10;99.90;;;;;;5054061;28;19916;-83
2021/08/02 13:18:27;;;;;;;;;;;18.10;99.90;;;;;;5052677;28;19970;-80
2021/08/02 13:20:52;;;;;;;;;;;18.10;99.90;;;;;;5066190;28;19936;-83
2021/08/02 13:28:34;;;;;;;;;;;18.00;99.90;;;;;;5072371;28;19924;-82
2021/08/02 13:31:01;;;;;;;;;;;18.00;99.90;;;;;;5069239;28;19912;-81
2021/08/02 13:33:26;;;;;;;;;;;18.00;99.90;;;;;;5058277;28;19927;-81
2021/08/02 13:35:52;;;;;;;;;;;18.10;99.90;;;;;;5074718;28;20219;-84
2021/08/02 13:38:17;;;;;;;;;;;18.20;99.90;;;;;;5058064;28;19928;-85
2021/08/02 13:40:43;;;;;;;;;;;18.40;99.90;;;;;;5057668;28;19916;-82
2021/08/02 13:43:09;;;;;;;;;;;18.30;99.90;;;;;;5057779;28;19999;-81
2021/08/02 13:45:36;;;;;;;;;;;18.30;99.90;;;;;;5056236;28;20235;-83
2021/08/02 13:48:02;;;;;;;;;;;18.20;99.90;;;;;;5056627;28;19912;-82
2021/08/02 13:50:28;;;;;;;;;;;18.20;99.90;;;;;;5057683;28;19986;-81
2021/08/02 13:52:53;;;;;;;;;;;18.20;99.90;;;;;;5057278;28;19948;-84
2021/08/02 13:55:19;;;;;;;;;;;18.20;99.90;;;;;;5068967;28;19940;-81
2021/08/02 13:57:45;;;;;;;;;;;18.20;99.90;;;;;;5052263;28;19934;-82
2021/08/02 14:00:10;;;;;;;;;;;18.30;99.90;;;;;;5056970;28;19921;-84
2021/08/02 14:02:36;;;;;;;;;;;18.30;99.90;;;;;;5056263;28;19912;-82
2021/08/02 14:05:02;;;;;;;;;;;18.30;99.90;;;;;;5057173;28;19927;-83
2021/08/02 14:07:27;;;;;;;;;;;18.40;99.90;;;;;;5057272;28;19930;-83
2021/08/02 14:09:53;;;;;;;;;;;18.60;99.90;;;;;;5057506;28;19912;-80
2021/08/02 14:12:19;;;;;;;;;;;18.90;99.90;;;;;;5054482;28;19995;-82
2021/08/02 14:14:46;;;;;;;;;;;18.80;99.90;;;;;;5065494;28;19978;-82
2021/08/02 14:17:17;;;;;;;;;;;18.70;99.90;;;;;;5064003;28;20067;-81
2021/08/02 14:19:44;;;;;;;;;;;18.50;99.90;;;;;;5048594;28;19916;-80
2021/08/02 14:22:10;;;;;;;;;;;18.50;99.90;;;;;;5048215;28;19938;-82